Time;durP1;ratioP1;P1;durP2;ratioP2;P2;SDS_P1;SDS_P2;PMS_P1;PMS_P2;Temp;Humidity;BMP_temperature;BMP_pressure;BME280_temperature;BME280_humidity;BME280_pressure;Samples;Min_cycle;Max_cycle;Signal;HPM_P1;HPM_P2
2022/07/17 00:02:21;;;;;;;5.00;1.57;;;;;;;21.30;39.50;101436.53;5069380;28;20243;-66
2022/07/17 00:04:50;;;;;;;3.60;1.17;;;;;;;21.29;39.60;101442.94;5072136;28;20754;-65
2022/07/17 00:07:17;;;;;;;5.93;1.43;;;;;;;21.28;39.87;101444.00;5074477;28;20210;-65
2022/07/17 00:09:45;;;;;;;5.80;1.40;;;;;;;21.22;39.79;101447.44;5074981;28;20282;-67
2022/07/17 00:12:15;;;;;;;5.33;1.30;;;;;;;21.20;40.04;101446.81;5088644;28;20298;-65
2022/07/17 00:14:43;;;;;;;4.37;1.50;;;;;;;21.20;39.78;101437.88;5059494;28;20249;-66
2022/07/17 00:17:12;;;;;;;3.00;1.23;;;;;;;21.18;40.19;101440.78;5061935;28;20204;-65
2022/07/17 00:19:40;;;;;;;5.90;1.80;;;;;;;21.15;40.10;101435.75;5070056;28;20652;-65
2022/07/17 00:22:08;;;;;;;6.30;1.90;;;;;;;21.14;40.05;101433.22;5066988;28;20688;-65
2022/07/17 00:24:36;;;;;;;4.20;1.40;;;;;;;21.10;40.44;101438.19;5067016;28;20217;-65
2022/07/17 00:27:04;;;;;;;4.73;1.77;;;;;;;21.11;40.31;101439.84;5073050;28;20207;-65
2022/07/17 00:29:33;;;;;;;3.67;1.40;;;;;;;21.06;40.50;101444.16;5073766;28;20208;-65
2022/07/17 00:32:02;;;;;;;5.50;1.50;;;;;;;21.01;40.56;101440.19;5072794;28;20250;-65
2022/07/17 00:34:30;;;;;;;6.60;1.50;;;;;;;21.02;40.48;101436.44;5073456;28;20203;-65
2022/07/17 00:36:58;;;;;;;4.63;1.50;;;;;;;21.08;40.52;101445.66;5078251;28;20207;-65
2022/07/17 00:39:26;;;;;;;5.70;1.63;;;;;;;21.06;40.78;101447.69;5079148;28;20207;-65
2022/07/17 00:41:54;;;;;;;3.10;1.50;;;;;;;21.01;40.52;101442.06;5073197;28;20239;-65
2022/07/17 00:44:22;;;;;;;5.87;1.63;;;;;;;20.98;40.77;101442.44;5072754;28;20272;-64
2022/07/17 00:46:51;;;;;;;7.13;1.70;;;;;;;21.00;40.69;101448.47;5070943;28;20736;-64
2022/07/17 00:49:19;;;;;;;5.20;1.67;;;;;;;20.94;40.88;101443.81;5084552;28;20257;-65
2022/07/17 00:51:47;;;;;;;4.97;1.63;;;;;;;20.97;40.82;101438.06;5085134;28;20286;-65
2022/07/17 00:54:18;;;;;;;3.43;1.60;;;;;;;20.98;40.63;101451.34;5072413;28;20633;-65
2022/07/17 00:56:49;;;;;;;11.17;2.43;;;;;;;20.90;40.82;101445.25;5078224;28;20248;-64
2022/07/17 00:59:17;;;;;;;5.73;1.73;;;;;;;20.86;40.96;101441.25;5093136;28;20674;-65
2022/07/17 01:01:44;;;;;;;6.97;1.60;;;;;;;20.78;41.41;101444.09;5093279;28;20230;-66
2022/07/17 01:04:14;;;;;;;6.60;1.50;;;;;;;20.75;41.44;101455.25;5092682;28;20663;-65
2022/07/17 01:06:42;;;;;;;5.23;1.60;;;;;;;20.68;41.28;101436.31;5093407;28;20230;-65
2022/07/17 01:09:11;;;;;;;5.90;1.70;;;;;;;20.63;41.32;101444.97;5093411;28;20214;-65
2022/07/17 01:11:40;;;;;;;4.30;1.40;;;;;;;20.66;41.20;101446.47;5092798;28;20202;-65
2022/07/17 01:14:08;;;;;;;4.57;1.47;;;;;;;20.62;41.34;101446.00;5092476;28;20238;-65
2022/07/17 01:16:36;;;;;;;4.37;1.50;;;;;;;20.62;41.46;101439.78;5091723;28;20207;-65
2022/07/17 01:19:05;;;;;;;6.03;1.67;;;;;;;20.58;41.18;101447.38;5090294;28;20276;-66
2022/07/17 01:21:41;;;;;;;4.67;1.67;;;;;;;20.57;41.32;101445.75;5090602;28;20225;-65
2022/07/17 01:24:10;;;;;;;5.33;1.37;;;;;;;20.53;41.46;101449.81;5081332;28;20210;-66
2022/07/17 01:26:37;;;;;;;10.43;2.17;;;;;;;20.50;41.62;101446.66;5093027;28;20611;-65
2022/07/17 01:29:05;;;;;;;7.47;1.90;;;;;;;20.48;41.57;101454.13;5085027;28;20310;-65
2022/07/17 01:31:33;;;;;;;5.83;1.50;;;;;;;20.47;41.22;101458.69;5086601;28;20202;-66
2022/07/17 01:34:02;;;;;;;4.50;1.57;;;;;;;20.43;41.53;101451.97;5092074;28;20272;-65
2022/07/17 01:36:30;;;;;;;5.50;1.67;;;;;;;20.36;41.60;101455.63;5092717;28;20213;-65
2022/07/17 01:38:59;;;;;;;4.17;1.70;;;;;;;20.32;41.43;101459.69;5092149;28;20209;-66
2022/07/17 01:41:27;;;;;;;4.30;1.40;;;;;;;20.28;41.91;101453.84;5092296;28;20228;-66
2022/07/17 01:43:55;;;;;;;3.67;1.30;;;;;;;20.22;41.72;101454.59;5091199;28;20206;-65
2022/07/17 01:46:23;;;;;;;6.47;1.47;;;;;;;20.20;41.77;101452.09;5087363;28;20728;-65
2022/07/17 01:48:51;;;;;;;6.70;1.93;;;;;;;20.16;42.00;101452.63;5091297;28;20644;-64
2022/07/17 01:51:21;;;;;;;3.63;1.30;;;;;;;20.16;42.08;101445.41;5084996;28;20199;-65
2022/07/17 01:53:52;;;;;;;4.83;1.37;;;;;;;20.11;41.87;101450.50;5071309;28;20302;-65
2022/07/17 01:56:21;;;;;;;4.90;1.20;;;;;;;20.11;42.17;101441.59;5075349;28;20238;-64
2022/07/17 01:58:49;;;;;;;4.63;1.50;;;;;;;20.07;42.03;101434.91;5085546;28;20206;-64
2022/07/17 02:01:17;;;;;;;3.67;1.30;;;;;;;20.05;42.11;101443.19;5082327;28;20229;-65
2022/07/17 02:03:45;;;;;;;5.30;1.60;;;;;;;20.05;42.20;101451.28;5090902;28;20199;-64
2022/07/17 02:06:13;;;;;;;3.90;1.50;;;;;;;20.01;42.38;101443.75;5088591;28;20210;-65
2022/07/17 02:08:41;;;;;;;5.23;1.80;;;;;;;19.98;42.26;101444.09;5088322;28;20241;-65
2022/07/17 02:11:09;;;;;;;4.83;1.50;;;;;;;19.95;41.95;101444.50;5081248;28;20264;-66
2022/07/17 02:13:38;;;;;;;5.67;1.73;;;;;;;19.89;42.42;101441.50;5090878;28;20664;-65
2022/07/17 02:16:06;;;;;;;5.00;1.70;;;;;;;19.86;42.09;101441.91;5091035;28;20210;-65
2022/07/17 02:18:34;;;;;;;3.33;1.30;;;;;;;19.82;42.46;101442.44;5091659;28;20297;-65
2022/07/17 02:21:02;;;;;;;5.97;1.43;;;;;;;19.75;42.73;101445.03;5097846;28;20234;-65
2022/07/17 02:23:30;;;;;;;4.23;1.17;;;;;;;19.76;42.71;101449.41;5111122;28;20206;-65
2022/07/17 02:25:58;;;;;;;3.77;1.50;;;;;;;19.77;42.52;101456.47;5106318;28;20198;-65
2022/07/17 02:28:26;;;;;;;6.53;1.80;;;;;;;19.76;42.59;101449.41;5102777;28;20698;-65
2022/07/17 02:30:55;;;;;;;5.27;1.50;;;;;;;19.72;42.73;101453.47;5111096;28;20244;-65
2022/07/17 02:33:23;;;;;;;5.30;1.10;;;;;;;19.70;42.45;101450.13;5111035;28;20316;-64
2022/07/17 02:35:51;;;;;;;4.23;1.40;;;;;;;19.69;42.43;101445.78;5111970;28;20900;-64
2022/07/17 02:38:19;;;;;;;5.27;1.17;;;;;;;19.69;42.37;101453.00;5111699;28;20210;-64
2022/07/17 02:40:47;;;;;;;3.97;1.40;;;;;;;19.66;42.67;101448.84;5111355;28;20877;-64
2022/07/17 02:43:15;;;;;;;7.40;1.37;;;;;;;19.67;42.84;101439.75;5108931;28;20224;-65
2022/07/17 02:45:43;;;;;;;5.50;1.43;;;;;;;19.69;42.90;101440.41;5111243;28;20224;-65
2022/07/17 02:48:13;;;;;;;2.40;1.30;;;;;;;19.73;42.43;101454.31;5108219;28;20682;-64
2022/07/17 02:50:40;;;;;;;5.57;1.47;;;;;;;19.69;42.33;101448.47;5111594;28;20651;-65
2022/07/17 02:53:08;;;;;;;6.50;1.67;;;;;;;19.67;42.43;101445.13;5110658;28;20293;-65
2022/07/17 02:55:36;;;;;;;5.00;1.23;;;;;;;19.67;42.30;101441.59;5111489;28;20560;-65
2022/07/17 02:58:04;;;;;;;3.93;1.37;;;;;;;19.62;42.73;101446.69;5110561;28;20626;-66
2022/07/17 03:00:33;;;;;;;3.67;1.40;;;;;;;19.61;42.77;101442.34;5109842;28;20230;-66
2022/07/17 03:03:01;;;;;;;4.33;1.07;;;;;;;19.52;42.65;101442.41;5110260;28;20628;-66
2022/07/17 03:05:30;;;;;;;6.53;1.27;;;;;;;19.53;42.70;101443.22;5111872;28;20202;-65
2022/07/17 03:07:58;;;;;;;4.47;1.53;;;;;;;19.50;42.75;101443.63;5111417;28;20750;-64
2022/07/17 03:10:25;;;;;;;4.80;1.80;;;;;;;19.51;42.99;101445.28;5110602;28;20575;-65
2022/07/17 03:12:53;;;;;;;7.43;1.33;;;;;;;19.48;42.97;101445.66;5110318;28;20288;-64
2022/07/17 03:15:22;;;;;;;5.63;1.50;;;;;;;19.45;42.78;101446.81;5110980;28;20242;-64
2022/07/17 03:17:50;;;;;;;4.60;1.50;;;;;;;19.38;43.26;101442.34;5110953;28;20234;-65
2022/07/17 03:20:18;;;;;;;4.77;1.47;;;;;;;19.33;42.96;101444.75;5100765;28;20237;-65
2022/07/17 03:22:47;;;;;;;8.37;2.07;;;;;;;19.31;43.05;101449.47;5110137;28;20221;-65
2022/07/17 03:25:15;;;;;;;7.57;1.40;;;;;;;19.26;43.27;101449.19;5110470;28;20240;-65
2022/07/17 03:27:43;;;;;;;3.27;1.23;;;;;;;19.23;43.33;101447.69;5110734;28;20428;-66
2022/07/17 03:30:11;;;;;;;4.03;1.47;;;;;;;19.16;43.42;101436.81;5111045;28;20304;-65
2022/07/17 03:32:39;;;;;;;4.97;1.10;;;;;;;19.13;43.46;101437.19;5110019;28;20228;-65
2022/07/17 03:35:08;;;;;;;2.50;1.00;;;;;;;19.15;43.88;101435.16;5110878;28;20216;-65
2022/07/17 03:37:37;;;;;;;5.27;1.37;;;;;;;19.14;43.88;101438.84;5110399;28;20725;-65
2022/07/17 03:40:07;;;;;;;3.10;1.70;;;;;;;19.08;44.01;101438.75;5108817;28;20213;-66
2022/07/17 03:42:35;;;;;;;2.97;1.20;;;;;;;19.07;43.97;101434.38;5114601;28;20210;-66
2022/07/17 03:45:04;;;;;;;4.97;1.30;;;;;;;19.02;43.94;101434.91;5114701;28;20650;-65
2022/07/17 03:47:32;;;;;;;4.33;1.30;;;;;;;19.04;43.92;101449.00;5114684;28;20271;-65
2022/07/17 03:49:59;;;;;;;3.33;1.00;;;;;;;19.03;43.82;101447.34;5104280;28;20202;-65
2022/07/17 03:52:27;;;;;;;7.43;1.80;;;;;;;19.02;43.58;101453.72;5110609;28;20206;-65
2022/07/17 03:54:55;;;;;;;3.23;1.27;;;;;;;19.03;43.50;101455.41;5114721;28;20298;-66
2022/07/17 03:57:24;;;;;;;6.17;1.50;;;;;;;18.97;43.65;101449.91;5103705;28;20273;-65
2022/07/17 03:59:52;;;;;;;4.93;1.30;;;;;;;18.91;43.89;101464.88;5087672;28;20710;-65
2022/07/17 04:02:20;;;;;;;6.70;1.60;;;;;;;18.85;43.98;101457.53;5089258;28;20878;-65
2022/07/17 04:04:48;;;;;;;3.47;1.30;;;;;;;18.84;44.36;101466.63;5085742;28;20293;-65
2022/07/17 04:07:28;;;;;;;6.13;1.73;;;;;;;18.86;44.24;101466.44;5090626;28;20214;-65
2022/07/17 04:09:57;;;;;;;3.83;1.43;;;;;;;18.83;44.21;101467.63;5086043;28;20212;-65
2022/07/17 04:12:28;;;;;;;4.73;1.40;;;;;;;18.83;44.24;101466.78;5093422;28;20294;-66
2022/07/17 04:14:56;;;;;;;4.53;1.40;;;;;;;18.78;44.13;101459.28;5093530;28;20225;-64
2022/07/17 04:17:24;;;;;;;4.13;1.50;;;;;;;18.83;44.09;101461.41;5093910;28;20281;-64
2022/07/17 04:19:52;;;;;;;6.37;1.60;;;;;;;18.78;44.42;101465.47;5083841;28;20234;-66
2022/07/17 04:22:20;;;;;;;3.80;1.47;;;;;;;18.78;44.31;101462.81;5091093;28;20234;-65
2022/07/17 04:24:48;;;;;;;5.03;1.33;;;;;;;18.81;44.53;101460.78;5088252;28;20260;-65
2022/07/17 04:27:16;;;;;;;9.17;1.40;;;;;;;18.77;44.58;101460.28;5093542;28;20215;-65
2022/07/17 04:29:46;;;;;;;4.27;1.50;;;;;;;18.82;44.57;101460.59;5093645;28;20249;-65
2022/07/17 04:32:14;;;;;;;3.87;1.40;;;;;;;18.83;44.63;101456.88;5092867;28;20574;-65
2022/07/17 04:34:41;;;;;;;5.60;1.30;;;;;;;18.85;44.29;101459.38;5084652;28;20218;-65
2022/07/17 04:37:09;;;;;;;4.07;1.30;;;;;;;18.86;44.30;101463.75;5081770;28;20206;-65
2022/07/17 04:39:37;;;;;;;5.17;1.67;;;;;;;18.83;44.81;101464.09;5088606;28;20842;-65
2022/07/17 04:42:05;;;;;;;4.47;1.83;;;;;;;18.86;44.62;101466.44;5092513;28;20230;-65
2022/07/17 04:44:33;;;;;;;5.90;1.73;;;;;;;18.89;44.27;101472.31;5093487;28;20264;-65
2022/07/17 04:47:02;;;;;;;4.93;1.50;;;;;;;18.92;44.59;101471.94;5093491;28;20237;-65
2022/07/17 04:49:31;;;;;;;8.87;1.67;;;;;;;18.95;44.52;101468.91;5089487;28;20305;-65
2022/07/17 04:51:59;;;;;;;6.73;1.63;;;;;;;19.00;44.28;101471.88;5092326;28;20258;-65
2022/07/17 04:54:26;;;;;;;9.67;2.00;;;;;;;18.99;44.32;101478.28;5082763;28;20211;-65
2022/07/17 04:56:54;;;;;;;8.73;1.83;;;;;;;18.96;44.72;101472.44;5084118;28;20231;-65
2022/07/17 04:59:22;;;;;;;6.70;1.40;;;;;;;18.96;44.78;101467.88;5072660;28;20672;-65
2022/07/17 05:01:50;;;;;;;3.50;1.50;;;;;;;19.02;44.20;101477.91;5058423;28;20243;-65
2022/07/17 05:04:20;;;;;;;3.90;1.33;;;;;;;19.10;44.58;101490.47;5072167;28;20207;-65
2022/07/17 05:06:54;;;;;;;5.93;1.70;;;;;;;19.14;44.57;101484.56;5073086;28;20268;-65
2022/07/17 05:09:22;;;;;;;5.10;1.30;;;;;;;19.17;44.41;101489.56;5072828;28;20685;-65
2022/07/17 05:11:50;;;;;;;3.70;1.30;;;;;;;19.27;44.28;101501.94;5072458;28;20207;-65
2022/07/17 05:14:18;;;;;;;4.93;1.87;;;;;;;19.32;44.29;101491.47;5072050;28;20203;-66
2022/07/17 05:16:46;;;;;;;4.37;1.47;;;;;;;19.33;44.11;101496.69;5072403;28;20323;-65
2022/07/17 05:19:14;;;;;;;5.03;1.70;;;;;;;19.39;43.82;101505.88;5072514;28;20329;-65
2022/07/17 05:21:43;;;;;;;5.23;1.83;;;;;;;19.38;44.17;101509.56;5072244;28;20297;-66
2022/07/17 05:24:11;;;;;;;9.73;2.30;;;;;;;19.40;44.10;101518.31;5071516;28;20278;-65
2022/07/17 05:26:39;;;;;;;9.33;1.93;;;;;;;19.42;44.06;101513.59;5072775;28;20627;-65
2022/07/17 05:29:07;;;;;;;6.63;2.70;;;;;;;19.44;44.50;101517.75;5071859;28;20235;-65
2022/07/17 05:31:35;;;;;;;8.77;3.53;;;;;;;19.50;44.40;101513.56;5071717;28;20257;-66
2022/07/17 05:34:03;;;;;;;6.97;3.33;;;;;;;19.57;44.39;101510.97;5071064;28;20602;-66
2022/07/17 05:36:31;;;;;;;5.00;2.00;;;;;;;19.66;43.86;101512.56;5072131;28;20211;-66
2022/07/17 05:39:03;;;;;;;7.13;2.00;;;;;;;19.72;44.30;101511.84;5072271;28;20207;-66
2022/07/17 05:41:31;;;;;;;8.53;1.67;;;;;;;19.74;43.92;101509.81;5072426;28;20211;-66
2022/07/17 05:43:59;;;;;;;3.60;1.17;;;;;;;19.73;44.29;101508.13;5071629;28;20227;-65
2022/07/17 05:46:27;;;;;;;6.60;1.57;;;;;;;19.74;43.89;101510.63;5072135;28;20303;-65
2022/07/17 05:48:55;;;;;;;7.13;1.50;;;;;;;19.82;44.07;101512.41;5071453;28;20211;-65
2022/07/17 05:51:23;;;;;;;4.70;1.50;;;;;;;19.83;43.89;101511.41;5072047;28;20230;-65
2022/07/17 05:53:52;;;;;;;5.60;2.10;;;;;;;19.89;44.03;101511.50;5070565;28;20249;-65
2022/07/17 05:56:21;;;;;;;6.53;1.40;;;;;;;19.89;43.70;101511.50;5063486;28;20233;-65
2022/07/17 05:58:49;;;;;;;12.87;2.77;;;;;;;19.88;43.72;101522.44;5112656;28;20198;-65
2022/07/17 06:01:17;;;;;;;12.33;1.57;;;;;;;19.91;43.96;101527.47;5097791;28;20598;-65
2022/07/17 06:03:45;;;;;;;7.23;1.80;;;;;;;19.94;43.95;101526.25;5111245;28;20682;-65
2022/07/17 06:06:12;;;;;;;4.77;1.63;;;;;;;20.02;44.02;101534.25;5112321;28;20689;-65
2022/07/17 06:08:40;;;;;;;6.23;1.27;;;;;;;20.12;43.48;101534.81;5108696;28;20215;-65
2022/07/17 06:11:09;;;;;;;3.13;1.30;;;;;;;20.19;43.48;101533.91;5112293;28;20650;-65
2022/07/17 06:13:38;;;;;;;5.73;1.67;;;;;;;20.28;43.67;101534.66;5110999;28;20216;-65
2022/07/17 06:16:06;;;;;;;3.50;1.17;;;;;;;20.32;43.54;101533.22;5111975;28;20727;-66
2022/07/17 06:18:34;;;;;;;4.63;1.50;;;;;;;20.42;43.41;101541.91;5112012;28;20210;-66
2022/07/17 06:21:02;;;;;;;8.53;2.73;;;;;;;20.47;43.30;101539.50;5102160;28;20217;-65
2022/07/17 06:23:30;;;;;;;5.17;1.90;;;;;;;20.52;42.97;101531.69;5109307;28;20225;-65
2022/07/17 06:25:58;;;;;;;6.63;2.17;;;;;;;20.59;42.94;101537.97;5109600;28;20251;-65
2022/07/17 06:28:26;;;;;;;5.03;1.20;;;;;;;20.63;42.66;101536.59;5110685;28;20214;-65
2022/07/17 06:30:55;;;;;;;5.30;1.40;;;;;;;20.67;42.43;101529.78;5111443;28;20853;-66
2022/07/17 06:33:23;;;;;;;7.80;1.60;;;;;;;20.71;42.52;101530.25;5108119;28;20230;-66
2022/07/17 06:35:51;;;;;;;4.87;1.63;;;;;;;20.76;42.69;101529.72;5111245;28;20230;-65
2022/07/17 06:38:18;;;;;;;5.27;1.20;;;;;;;20.78;42.86;101531.19;5112131;28;20210;-65
2022/07/17 06:40:47;;;;;;;7.40;1.40;;;;;;;20.87;42.42;101542.69;5111861;28;20210;-65
2022/07/17 06:43:14;;;;;;;4.13;1.80;;;;;;;20.93;42.35;101528.47;5110790;28;20266;-64
2022/07/17 06:45:42;;;;;;;6.50;1.97;;;;;;;20.97;42.28;101527.03;5111320;28;20225;-65
2022/07/17 06:48:11;;;;;;;4.83;1.87;;;;;;;21.03;42.27;101526.25;5111245;28;20221;-65
2022/07/17 06:50:40;;;;;;;7.03;1.33;;;;;;;21.07;42.07;101524.88;5111350;28;20206;-66
2022/07/17 06:53:08;;;;;;;3.37;1.03;;;;;;;21.13;42.22;101523.25;5110591;28;20206;-65
2022/07/17 06:55:36;;;;;;;3.90;1.50;;;;;;;21.16;42.53;101528.28;5111267;28;20220;-65
2022/07/17 06:58:03;;;;;;;5.73;1.53;;;;;;;21.23;42.28;101519.25;5110985;28;20234;-65
2022/07/17 07:00:31;;;;;;;7.40;1.20;;;;;;;21.27;42.63;101519.72;5102324;28;20683;-65
2022/07/17 07:03:00;;;;;;;6.43;1.63;;;;;;;21.37;42.04;101531.03;5105166;28;20206;-65
2022/07/17 07:05:29;;;;;;;7.57;1.77;;;;;;;21.43;42.21;101519.44;5111340;28;20209;-65
2022/07/17 07:07:56;;;;;;;5.90;1.40;;;;;;;21.49;42.22;101529.47;5110816;28;20301;-65
2022/07/17 07:10:24;;;;;;;4.17;1.87;;;;;;;21.54;42.05;101531.59;5111103;28;20206;-66
2022/07/17 07:12:52;;;;;;;6.90;1.70;;;;;;;21.56;41.93;101524.13;5110596;28;20212;-66
2022/07/17 07:15:20;;;;;;;5.10;1.27;;;;;;;21.62;41.86;101517.97;5109712;28;20716;-65
2022/07/17 07:17:48;;;;;;;3.40;1.43;;;;;;;21.67;41.65;101526.28;5110492;28;20202;-66
2022/07/17 07:20:16;;;;;;;5.83;1.80;;;;;;;21.72;41.82;101521.97;5100721;28;20834;-65
2022/07/17 07:22:45;;;;;;;6.27;1.63;;;;;;;21.76;41.91;101527.81;5110267;28;20210;-65
2022/07/17 07:25:13;;;;;;;5.63;1.90;;;;;;;21.80;41.91;101521.00;5108181;28;20321;-65
2022/07/17 07:27:40;;;;;;;4.77;1.60;;;;;;;21.86;41.65;101525.63;5110412;28;20552;-65
2022/07/17 07:30:11;;;;;;;5.93;1.53;;;;;;;21.92;41.88;101515.88;5110766;28;20629;-65
2022/07/17 07:32:40;;;;;;;4.10;1.60;;;;;;;21.98;41.10;101512.44;5110140;28;20222;-65
2022/07/17 07:35:09;;;;;;;5.70;1.33;;;;;;;22.05;41.74;101516.84;5110395;28;20202;-65
2022/07/17 07:37:37;;;;;;;3.80;1.40;;;;;;;22.11;41.78;101521.47;5111099;28;20212;-65
2022/07/17 07:40:08;;;;;;;7.80;1.73;;;;;;;22.18;41.92;101517.94;5110765;28;20224;-65
2022/07/17 07:42:36;;;;;;;5.60;1.70;;;;;;;22.24;41.58;101515.31;5110125;28;20640;-65
2022/07/17 07:45:04;;;;;;;5.93;2.10;;;;;;;22.32;41.65;101522.41;5110556;28;20232;-64
2022/07/17 07:47:32;;;;;;;7.70;2.80;;;;;;;22.38;41.07;101521.59;5110035;28;20206;-64
2022/07/17 07:50:00;;;;;;;4.30;1.87;;;;;;;22.44;40.82;101509.97;5110870;28;20228;-64
2022/07/17 07:52:28;;;;;;;5.50;1.30;;;;;;;22.50;40.61;101518.16;5110101;28;20313;-65
2022/07/17 07:54:55;;;;;;;4.80;1.23;;;;;;;22.57;40.26;101517.34;5110466;28;20285;-65
2022/07/17 07:57:24;;;;;;;5.30;1.70;;;;;;;22.62;40.21;101514.84;5110297;28;20238;-65
2022/07/17 07:59:52;;;;;;;13.77;2.10;;;;;;;22.66;40.26;101514.25;5110052;28;20204;-65
2022/07/17 08:02:20;;;;;;;4.03;1.50;;;;;;;22.73;39.99;101516.97;5107603;28;20233;-65
2022/07/17 08:04:48;;;;;;;3.07;1.20;;;;;;;22.79;39.68;101514.31;5110146;28;20226;-65
2022/07/17 08:07:16;;;;;;;4.83;1.50;;;;;;;22.87;39.88;101519.53;5110121;28;20248;-65
2022/07/17 08:09:43;;;;;;;7.90;1.40;;;;;;;22.99;39.54;101524.38;5110273;28;20217;-65
2022/07/17 08:12:11;;;;;;;2.83;1.00;;;;;;;23.05;39.02;101518.97;5109436;28;20217;-65
2022/07/17 08:15:00;;;;;;;3.10;1.05;;;;;;;23.17;38.69;101516.50;5109877;28;20217;-65
2022/07/17 08:17:28;;;;;;;5.10;1.83;;;;;;;23.27;38.82;101520.47;5110526;28;20643;-65
2022/07/17 08:19:56;;;;;;;6.13;2.05;;;;;;;23.34;38.85;101514.22;5104647;28;20226;-65
2022/07/17 08:22:23;;;;;;;3.42;1.38;;;;;;;23.44;38.95;101517.38;5109257;28;20242;-65
2022/07/17 08:25:12;;;;;;;6.78;1.50;;;;;;;23.56;38.65;101508.47;5105929;28;20238;-65
2022/07/17 08:27:43;;;;;;;6.38;1.77;;;;;;;23.69;37.73;101506.78;5113880;28;20206;-65
2022/07/17 08:30:14;;;;;;;4.95;1.27;;;;;;;23.78;38.00;101510.94;5110057;28;20574;-65
2022/07/17 08:32:43;;;;;;;2.28;1.10;;;;;;;23.85;37.68;101507.19;5112975;28;20228;-66
2022/07/17 08:35:11;;;;;;;4.70;1.20;;;;;;;23.91;37.40;101508.22;5113883;28;20202;-64
2022/07/17 08:37:44;;;;;;;5.35;1.55;;;;;;;23.99;37.30;101519.69;5099463;28;20206;-64
2022/07/17 08:40:17;;;;;;;5.85;1.10;;;;;;;24.12;37.63;101521.50;5114098;28;20269;-64
2022/07/17 08:42:45;;;;;;;4.18;1.50;;;;;;;24.22;37.69;101518.41;5113501;28;20277;-64
2022/07/17 08:45:14;;;;;;;4.18;1.40;;;;;;;24.35;37.42;101512.94;5113454;28;20236;-66
2022/07/17 08:47:42;;;;;;;6.18;1.50;;;;;;;24.43;37.13;101514.59;5113674;28;20202;-65
2022/07/17 08:50:11;;;;;;;7.05;1.40;;;;;;;24.53;36.29;101514.97;5113822;28;20214;-64
2022/07/17 08:52:40;;;;;;;3.05;1.20;;;;;;;24.64;36.15;101514.28;5112731;28;20271;-65
2022/07/17 08:55:12;;;;;;;6.40;1.25;;;;;;;24.74;36.14;101512.78;5113555;28;20241;-65
2022/07/17 08:57:41;;;;;;;3.13;1.20;;;;;;;24.79;35.69;101511.31;5113309;28;20234;-64
2022/07/17 09:00:16;;;;;;;6.70;1.42;;;;;;;24.87;35.45;101508.34;5107003;28;20199;-65
2022/07/17 09:02:55;;;;;;;4.95;1.55;;;;;;;24.98;35.10;101497.63;5105389;28;20210;-66
2022/07/17 09:05:24;;;;;;;3.58;1.15;;;;;;;24.97;34.19;101493.28;5107566;28;20213;-64
2022/07/17 09:07:52;;;;;;;8.15;1.10;;;;;;;25.07;34.59;101495.50;5113561;28;20210;-65
2022/07/17 09:10:31;;;;;;;3.45;1.10;;;;;;;25.18;34.18;101481.22;5113825;28;20241;-65
2022/07/17 09:13:00;;;;;;;5.85;1.15;;;;;;;25.27;34.46;101487.22;5112443;28;20355;-65
2022/07/17 09:15:29;;;;;;;4.90;1.17;;;;;;;25.35;34.52;101481.50;5112747;28;20236;-65
2022/07/17 09:17:57;;;;;;;3.17;1.25;;;;;;;25.40;34.62;101484.41;5111079;28;20575;-65
2022/07/17 09:20:25;;;;;;;5.40;1.10;;;;;;;25.54;34.13;101485.13;5103012;28;20202;-64
2022/07/17 09:22:56;;;;;;;8.15;1.30;;;;;;;25.66;33.32;101486.09;5112484;28;20220;-65
2022/07/17 09:25:36;;;;;;;4.63;1.30;;;;;;;25.76;32.80;101484.53;5108598;28;20236;-66
2022/07/17 09:28:05;;;;;;;3.95;1.40;;;;;;;25.78;33.34;101482.41;5113071;28;20309;-65
2022/07/17 09:30:36;;;;;;;5.65;1.05;;;;;;;25.85;32.59;101483.19;5113085;28;20633;-66
2022/07/17 09:33:07;;;;;;;4.95;1.23;;;;;;;25.97;32.26;101482.44;5112192;28;20318;-65
2022/07/17 09:35:44;;;;;;;4.88;1.35;;;;;;;25.94;32.02;101477.47;5113104;28;20728;-65
2022/07/17 09:38:13;;;;;;;6.25;1.20;;;;;;;26.08;32.27;101470.81;5104135;28;20296;-66
2022/07/17 09:43:39;;;;;;;5.50;1.30;;;;;;;26.18;31.63;101482.00;5112124;28;20304;-66
2022/07/17 09:46:16;;;;;;;6.28;1.20;;;;;;;26.30;31.67;101477.47;5112127;28;20225;-66
2022/07/17 09:48:48;;;;;;;6.07;1.42;;;;;;;26.35;31.62;101469.50;5112359;28;20202;-66
2022/07/17 09:51:21;;;;;;;5.07;1.13;;;;;;;26.51;31.51;101468.03;5098743;28;20202;-65
2022/07/17 09:53:52;;;;;;;7.00;1.88;;;;;;;26.50;31.44;101475.34;5111528;28;20920;-66
2022/07/17 09:56:22;;;;;;;3.90;1.20;;;;;;;26.60;31.50;101478.38;5098385;28;20549;-66
2022/07/17 09:58:52;;;;;;;4.05;1.83;;;;;;;26.72;31.20;101472.16;5112201;28;20287;-66
2022/07/17 10:01:22;;;;;;;7.75;1.80;;;;;;;26.80;30.98;101469.09;5109772;28;20214;-64
2022/07/17 10:03:53;;;;;;;2.92;1.33;;;;;;;26.88;31.02;101474.22;5109318;28;20202;-65
2022/07/17 10:06:21;;;;;;;5.07;1.50;;;;;;;26.81;29.41;101465.34;5112114;28;20577;-66
2022/07/17 10:08:50;;;;;;;2.72;1.35;;;;;;;26.91;29.72;101460.19;5112420;28;20255;-65
2022/07/17 10:11:21;;;;;;;3.55;1.00;;;;;;;26.99;30.54;101467.19;5112047;28;20244;-65
2022/07/17 10:13:52;;;;;;;8.10;1.50;;;;;;;27.05;30.45;101468.97;5109231;28;20218;-65
2022/07/17 10:16:26;;;;;;;5.13;1.35;;;;;;;27.18;29.86;101469.59;5111689;28;20202;-66
2022/07/17 10:18:57;;;;;;;8.93;2.67;;;;;;;27.15;29.14;101474.69;5109913;28;20198;-65
2022/07/17 10:21:27;;;;;;;3.88;1.30;;;;;;;27.29;29.62;101467.94;5101167;28;20217;-65
2022/07/17 10:24:09;;;;;;;2.10;0.90;;;;;;;27.35;29.36;101465.13;5110871;28;20709;-67
2022/07/17 10:26:48;;;;;;;5.43;1.30;;;;;;;27.44;30.08;101464.78;5111489;28;20230;-65
2022/07/17 10:29:34;;;;;;;2.97;1.10;;;;;;;27.50;28.83;101463.84;5111514;28;20205;-64
2022/07/17 10:32:08;;;;;;;4.43;1.05;;;;;;;27.47;28.65;101464.31;5111002;28;20236;-66
2022/07/17 10:34:44;;;;;;;2.05;0.98;;;;;;;27.60;29.94;101464.13;5111136;28;20682;-65
2022/07/17 10:37:33;;;;;;;3.22;1.00;;;;;;;27.73;29.09;101463.03;5111552;28;20253;-66
2022/07/17 10:40:05;;;;;;;3.90;1.40;;;;;;;27.79;28.80;101464.84;5111112;28;20212;-66
2022/07/17 10:42:58;;;;;;;5.60;1.30;;;;;;;27.83;29.06;101458.66;5110363;28;20293;-65
2022/07/17 10:45:33;;;;;;;10.32;1.40;;;;;;;27.97;28.62;101459.25;5091197;28;20710;-64
2022/07/17 10:48:05;;;;;;;2.72;1.10;;;;;;;28.05;28.08;101461.59;5098768;28;20229;-65
2022/07/17 10:50:35;;;;;;;4.78;1.58;;;;;;;28.02;27.99;101452.00;5111467;28;20651;-65
2022/07/17 10:53:16;;;;;;;5.55;1.10;;;;;;;28.19;28.48;101459.47;5110751;28;20665;-65
2022/07/17 10:55:53;;;;;;;5.75;1.20;;;;;;;28.30;28.60;101461.34;5110823;28;20238;-65
2022/07/17 10:58:24;;;;;;;4.72;1.35;;;;;;;28.39;28.91;101457.16;5110993;28;20379;-65
2022/07/17 11:01:04;;;;;;;4.70;1.20;;;;;;;28.41;29.29;101449.53;5099257;28;20211;-65
2022/07/17 11:03:39;;;;;;;7.35;1.30;;;;;;;28.56;28.85;101462.66;5109588;28;20206;-65
2022/07/17 11:06:16;;;;;;;3.53;1.20;;;;;;;28.68;29.18;101461.53;5111457;28;20267;-65
2022/07/17 11:08:47;;;;;;;3.55;1.05;;;;;;;28.75;28.18;101462.25;5094815;28;20206;-66
2022/07/17 11:11:15;;;;;;;5.20;1.15;;;;;;;28.84;27.79;101464.59;5111057;28;20320;-66
2022/07/17 11:13:52;;;;;;;6.75;1.50;;;;;;;28.71;26.80;101466.50;5103707;28;20285;-66
2022/07/17 11:16:27;;;;;;;4.22;1.48;;;;;;;28.84;27.23;101462.69;5110944;28;20259;-65
2022/07/17 11:18:58;;;;;;;6.30;1.45;;;;;;;28.94;27.82;101462.06;5105424;28;20569;-65
2022/07/17 11:21:26;;;;;;;6.15;1.48;;;;;;;28.86;26.74;101452.34;5103787;28;20245;-66
2022/07/17 11:23:55;;;;;;;3.63;1.48;;;;;;;29.02;27.14;101456.19;5110383;28;20202;-66
2022/07/17 11:26:25;;;;;;;3.33;1.30;;;;;;;28.97;26.10;101453.34;5110991;28;20266;-66
2022/07/17 11:28:57;;;;;;;2.97;1.30;;;;;;;28.90;26.08;101447.22;5111098;28;20206;-65
2022/07/17 11:31:30;;;;;;;2.60;1.15;;;;;;;28.89;26.18;101456.50;5110618;28;20209;-66
2022/07/17 11:34:01;;;;;;;3.00;0.90;;;;;;;28.92;25.68;101445.09;5109631;28;20252;-65
2022/07/17 11:36:36;;;;;;;5.32;1.15;;;;;;;28.96;25.58;101447.06;5110357;28;20206;-65
2022/07/17 11:39:06;;;;;;;3.80;1.02;;;;;;;29.12;26.01;101445.41;5110803;28;20209;-66